createdAt,value
2024-02-28T00:00:44.888Z,24.7
2024-02-28T00:03:46.843Z,22.4
2024-02-28T00:06:48.879Z,22.5
2024-02-28T00:09:50.850Z,19.8
2024-02-28T00:12:52.754Z,21.4
2024-02-28T00:15:54.654Z,18.3
2024-02-28T00:18:56.614Z,20.4
2024-02-28T00:21:58.647Z,18.4
2024-02-28T00:25:00.536Z,18.7
2024-02-28T00:28:02.420Z,21.2
2024-02-28T00:31:04.367Z,20.4
2024-02-28T00:34:06.327Z,20.5
2024-02-28T00:37:08.370Z,19.9
2024-02-28T00:40:10.292Z,19.3
2024-02-28T00:43:12.227Z,19.9
2024-02-28T00:46:14.169Z,22.4
2024-02-28T00:49:16.189Z,19
2024-02-28T00:52:18.082Z,20.6
2024-02-28T00:55:20.258Z,18.2
2024-02-28T00:58:21.981Z,23.2
2024-02-28T01:01:23.996Z,19.5
2024-02-28T01:04:25.946Z,19.7
2024-02-28T01:07:27.835Z,21.6
2024-02-28T01:10:29.791Z,20.4
2024-02-28T01:13:31.797Z,22.3
2024-02-28T01:16:33.720Z,22.2
2024-02-28T01:19:35.705Z,23.7
2024-02-28T01:22:37.697Z,21.1
2024-02-28T01:25:39.610Z,24.5
2024-02-28T01:28:41.543Z,22.6
2024-02-28T01:31:43.500Z,23.7
2024-02-28T01:34:45.401Z,20.1
2024-02-28T01:37:47.410Z,19.7
2024-02-28T01:40:49.330Z,21.8
2024-02-28T01:43:51.324Z,21.6
2024-02-28T01:46:53.218Z,23.3
2024-02-28T01:49:55.279Z,25.1
2024-02-28T01:52:57.142Z,21.7
2024-02-28T01:55:59.087Z,24.7
2024-02-28T02:02:02.986Z,25.2
2024-02-28T02:05:04.979Z,24.8
2024-02-28T02:08:06.880Z,24.9
2024-02-28T02:11:08.867Z,25.3
2024-02-28T02:14:10.814Z,28.8
2024-02-28T02:17:12.721Z,25.1
2024-02-28T02:20:14.678Z,23.1
2024-02-28T02:23:16.630Z,27.3
2024-02-28T02:26:18.626Z,23.9
2024-02-28T02:32:22.478Z,26.8
2024-02-28T02:35:24.420Z,26.5
2024-02-28T02:38:26.433Z,25.9
2024-02-28T02:41:28.339Z,23.9
2024-02-28T02:44:30.321Z,27.9
2024-02-28T02:47:32.307Z,26.2
2024-02-28T02:50:34.202Z,27.5
2024-02-28T02:53:36.203Z,29.1
2024-02-28T02:56:38.111Z,26.7
2024-02-28T02:59:40.049Z,23.9
2024-02-28T03:02:42.079Z,27.3
2024-02-28T03:05:43.991Z,31
2024-02-28T03:11:47.869Z,27.7
2024-02-28T03:14:49.883Z,27.3
2024-02-28T03:17:51.847Z,28.3
2024-02-28T03:20:53.722Z,27.7
2024-02-28T03:23:55.664Z,32.1
2024-02-28T03:26:57.643Z,28.5
2024-02-28T03:29:59.597Z,28.7
2024-02-28T03:33:01.598Z,32
2024-02-28T03:36:03.471Z,31.8
2024-02-28T03:39:05.464Z,30.1
2024-02-28T03:42:07.360Z,28.6
2024-02-28T03:45:09.380Z,29.3
2024-02-28T03:48:11.345Z,30.1
2024-02-28T03:51:13.293Z,31.2
2024-02-28T03:54:15.279Z,30.9
2024-02-28T03:57:17.217Z,31.3
2024-02-28T04:00:19.099Z,33.1
2024-02-28T04:03:21.089Z,34.4
2024-02-28T04:06:23.045Z,31.1
2024-02-28T04:09:24.980Z,31.4
2024-02-28T04:12:26.949Z,31.4
2024-02-28T04:15:28.855Z,33.4
2024-02-28T04:18:30.800Z,33.2
2024-02-28T04:21:32.777Z,32.1
2024-02-28T04:24:34.770Z,30.6
2024-02-28T04:27:36.786Z,34.2
2024-02-28T04:30:38.644Z,35.3
2024-02-28T04:33:40.690Z,33.9
2024-02-28T04:36:42.566Z,34.4
2024-02-28T04:39:44.538Z,37.4
2024-02-28T04:42:46.592Z,29.5
2024-02-28T04:45:48.413Z,37.5
2024-02-28T04:48:50.433Z,32.3
2024-02-28T04:51:52.458Z,33.8
2024-02-28T04:54:54.345Z,33.1
2024-02-28T04:57:56.347Z,33
2024-02-28T05:00:58.370Z,34.5
2024-02-28T05:04:00.280Z,29.5
2024-02-28T05:07:02.223Z,39
2024-02-28T05:10:04.179Z,36
2024-02-28T05:13:06.127Z,37.7
2024-02-28T05:16:08.067Z,41.1
2024-02-28T05:19:09.972Z,38.9
2024-02-28T05:22:11.995Z,36.4
2024-02-28T05:25:13.878Z,36.1
2024-02-28T05:28:15.891Z,42.9
2024-02-28T05:31:17.949Z,38
2024-02-28T05:34:19.927Z,41.4
2024-02-28T05:37:21.841Z,42.4
2024-02-28T05:40:23.882Z,41.4
2024-02-28T05:43:25.827Z,38.4
2024-02-28T05:46:27.736Z,37.4
2024-02-28T05:49:29.787Z,38.1
2024-02-28T05:52:31.660Z,40.6
2024-02-28T05:55:33.623Z,38.6
2024-02-28T05:58:35.647Z,41.5
2024-02-28T06:01:37.533Z,40.8
2024-02-28T06:04:39.601Z,38.6
2024-02-28T06:07:41.535Z,40
2024-02-28T06:10:43.509Z,38.5
2024-02-28T06:13:45.454Z,40.9
2024-02-28T06:16:47.365Z,40
2024-02-28T06:19:49.448Z,48.6
2024-02-28T06:22:51.255Z,44.5
2024-02-28T06:25:53.248Z,38.5
2024-02-28T06:31:57.115Z,41
2024-02-28T06:34:59.104Z,38.6
2024-02-28T06:38:01.082Z,41
2024-02-28T06:41:03.008Z,38.3
2024-02-28T06:44:04.937Z,40.8
2024-02-28T06:47:06.825Z,37.8
2024-02-28T06:50:08.842Z,37.5
2024-02-28T06:53:10.816Z,39.8
2024-02-28T06:56:12.817Z,39.3
2024-02-28T07:02:16.737Z,36.8
2024-02-28T07:05:18.677Z,42.9
2024-02-28T07:08:20.528Z,39.1
2024-02-28T07:11:22.507Z,38.3
2024-02-28T07:14:24.485Z,43.8
2024-02-28T07:17:26.377Z,39.9
2024-02-28T07:20:28.341Z,42.5
2024-02-28T07:23:30.324Z,42.5
2024-02-28T07:26:32.242Z,39.6
2024-02-28T07:29:34.195Z,40.4
2024-02-28T07:32:36.485Z,42.2
2024-02-28T07:35:38.088Z,38.3
2024-02-28T07:41:42.038Z,43.5
2024-02-28T07:44:43.997Z,42.8
2024-02-28T07:47:46.024Z,43.2
2024-02-28T07:50:47.872Z,43.1
2024-02-28T07:53:49.823Z,41.2
2024-02-28T07:56:52.090Z,43.1
2024-02-28T07:59:53.753Z,38.8
2024-02-28T08:02:55.771Z,41.8
2024-02-28T08:05:57.778Z,40.7
2024-02-28T08:08:59.583Z,44.3
2024-02-28T08:12:01.569Z,42.4
2024-02-28T08:15:03.549Z,39
2024-02-28T08:18:05.503Z,42.9
2024-02-28T08:21:07.477Z,41.4
2024-02-28T08:24:09.376Z,36
2024-02-28T08:27:11.398Z,36.5
2024-02-28T08:30:13.408Z,35.7
2024-02-28T08:33:16.135Z,33.3
2024-02-28T08:36:17.214Z,31.4
2024-02-28T08:39:19.153Z,35
2024-02-28T08:42:21.127Z,33.3
2024-02-28T08:45:23.126Z,31.4
2024-02-28T08:48:25.104Z,40.8
2024-02-28T08:51:27.067Z,31.2
2024-02-28T08:54:29.000Z,29.9
2024-02-28T08:57:30.916Z,28.6
2024-02-28T09:00:33.158Z,28
2024-02-28T09:03:34.983Z,28.2
2024-02-28T09:06:36.893Z,30.4
2024-02-28T09:09:38.823Z,24.7
2024-02-28T09:12:40.803Z,23.2
2024-02-28T09:15:42.764Z,22.4
2024-02-28T09:18:44.684Z,26.8
2024-02-28T09:21:46.862Z,25.8
2024-02-28T09:24:48.583Z,27.6
2024-02-28T09:27:50.510Z,25.8
2024-02-28T09:30:53.131Z,24.7
2024-02-28T09:33:54.528Z,25.4
2024-02-28T09:36:56.422Z,23.3
2024-02-28T09:39:58.429Z,28.8
2024-02-28T09:43:00.350Z,25.7
2024-02-28T09:46:02.336Z,27.4
2024-02-28T09:49:04.222Z,26.6
2024-02-28T09:52:06.188Z,27.6
2024-02-28T09:55:08.149Z,26.8
2024-02-28T09:58:10.091Z,24.6
2024-02-28T10:01:12.113Z,23.4
2024-02-28T10:04:14.092Z,27
2024-02-28T10:07:16.009Z,29.1
2024-02-28T10:10:17.977Z,27.3
2024-02-28T10:13:19.889Z,31.1
2024-02-28T10:16:21.891Z,28.6
2024-02-28T10:19:23.856Z,31.7
2024-02-28T10:22:25.768Z,34.4
2024-02-28T10:25:28.984Z,31.1
2024-02-28T10:28:29.784Z,28.6
2024-02-28T10:31:31.759Z,30
2024-02-28T10:34:33.722Z,27.5
2024-02-28T10:37:35.760Z,24.8
2024-02-28T10:40:37.714Z,29.1
2024-02-28T10:43:39.637Z,29.5
2024-02-28T10:46:41.824Z,33.9
2024-02-28T10:49:43.608Z,30.3
2024-02-28T10:52:45.556Z,29.9
2024-02-28T10:55:47.515Z,33.7
2024-02-28T10:58:49.461Z,33.9
2024-02-28T11:01:51.559Z,28.7
2024-02-28T11:04:53.581Z,33
2024-02-28T11:07:55.375Z,33.1
2024-02-28T11:10:57.351Z,34.3
2024-02-28T11:13:59.334Z,28.8
2024-02-28T11:17:01.358Z,31
2024-02-28T11:20:03.254Z,28.7
2024-02-28T11:23:05.233Z,31.1
2024-02-28T11:26:07.231Z,29.7
2024-02-28T11:32:11.154Z,31.8
2024-02-28T11:35:13.184Z,34.4
2024-02-28T11:38:15.038Z,28.6
2024-02-28T11:41:17.106Z,31.5
2024-02-28T11:44:19.269Z,29.8
2024-02-28T11:47:21.059Z,32.4
2024-02-28T11:50:23.182Z,29.9
2024-02-28T11:53:25.133Z,34.9
2024-02-28T11:56:27.124Z,33.7
2024-02-28T11:59:29.074Z,30.9
2024-02-28T12:02:30.967Z,28
2024-02-28T12:05:32.938Z,25.5
2024-02-28T12:11:37.012Z,25.3
2024-02-28T12:14:38.900Z,23.2
2024-02-28T12:17:40.863Z,28.3
2024-02-28T12:20:42.830Z,28
2024-02-28T12:23:44.823Z,25.7
2024-02-28T12:26:46.851Z,25.5
2024-02-28T12:29:48.831Z,26.9
2024-02-28T12:32:50.831Z,21.2
2024-02-28T12:35:52.707Z,21.8
2024-02-28T12:38:54.966Z,27.1
2024-02-28T12:41:56.908Z,28.7
2024-02-28T12:44:58.916Z,22.7
2024-02-28T12:48:00.836Z,21
2024-02-28T12:51:02.830Z,26
2024-02-28T12:54:04.751Z,24.6
2024-02-28T12:57:06.720Z,23.7
2024-02-28T13:00:08.732Z,18.2
2024-02-28T13:03:10.755Z,18.3
2024-02-28T13:06:12.676Z,22
2024-02-28T13:09:14.664Z,24.9
2024-02-28T13:12:16.725Z,19.8
2024-02-28T13:15:18.632Z,21.4
2024-02-28T13:18:20.661Z,16.3
2024-02-28T13:21:22.611Z,23.4
2024-02-28T13:24:24.498Z,15.4
2024-02-28T13:27:26.528Z,17.1
2024-02-28T13:30:28.538Z,20.7
2024-02-28T13:33:30.663Z,18.9
2024-02-28T13:36:32.572Z,22.1
2024-02-28T13:39:34.537Z,22.4
2024-02-28T13:42:36.511Z,21
2024-02-28T13:45:40.363Z,22.6
2024-02-28T13:48:40.429Z,16.8
2024-02-28T13:51:42.898Z,23.2
2024-02-28T13:54:44.600Z,20.8
2024-02-28T13:57:46.471Z,19.8
2024-02-28T14:00:48.795Z,21.8
2024-02-28T14:03:50.373Z,20.5
2024-02-28T14:06:52.382Z,21.5
2024-02-28T14:09:54.378Z,18.1
2024-02-28T14:12:56.449Z,22.3
2024-02-28T14:15:58.419Z,16
2024-02-28T14:19:00.444Z,17
2024-02-28T14:22:02.346Z,19.2
2024-02-28T14:25:04.317Z,17.2
2024-02-28T14:28:06.330Z,17.1
2024-02-28T14:31:08.418Z,20.8
2024-02-28T14:34:10.364Z,24.1
2024-02-28T14:37:12.285Z,19.4
2024-02-28T14:40:14.430Z,22.9
2024-02-28T14:43:16.209Z,19.2
2024-02-28T14:46:18.480Z,19
2024-02-28T14:49:20.298Z,18.8
2024-02-28T14:52:24.608Z,24.1
2024-02-28T14:55:24.660Z,19.1
2024-02-28T14:58:26.558Z,19.6
2024-02-28T15:01:28.828Z,17.9
2024-02-28T15:04:30.501Z,21.4
2024-02-28T15:07:32.403Z,16.6
2024-02-28T15:10:34.488Z,16
2024-02-28T15:13:36.545Z,15.5
2024-02-28T15:16:38.435Z,18.2
2024-02-28T15:19:40.462Z,17.3
2024-02-28T15:22:42.441Z,15.8
2024-02-28T15:25:44.357Z,13.1
2024-02-28T15:28:46.326Z,19.3
2024-02-28T15:31:48.345Z,13.9
2024-02-28T15:34:50.317Z,12.8
2024-02-28T15:37:52.390Z,9.1
2024-02-28T15:40:54.401Z,8.9
2024-02-28T15:43:56.375Z,7.9
2024-02-28T15:46:58.331Z,8.9
2024-02-28T15:50:00.197Z,10.9
2024-02-28T15:53:02.103Z,10.5
2024-02-28T15:56:04.101Z,9.9
2024-02-28T16:02:07.965Z,7.7
2024-02-28T16:05:10.049Z,7.9
2024-02-28T16:08:11.893Z,9.2
2024-02-28T16:11:13.937Z,7.8
2024-02-28T16:14:15.800Z,5.8
2024-02-28T16:17:17.760Z,10.3
2024-02-28T16:20:19.852Z,6.8
2024-02-28T16:23:21.796Z,7.9
2024-02-28T16:26:23.828Z,11.7
2024-02-28T16:32:27.690Z,8.6
2024-02-28T16:35:29.617Z,10.2
2024-02-28T16:41:33.548Z,7.8
2024-02-28T16:44:35.502Z,7.6
2024-02-28T16:47:37.479Z,9.3
2024-02-28T16:50:39.405Z,9.1
2024-02-28T16:53:41.323Z,10.1
2024-02-28T16:56:43.310Z,15.2
2024-02-28T16:59:45.323Z,11
2024-02-28T17:02:47.229Z,12.2
2024-02-28T17:05:49.289Z,14
2024-02-28T17:11:53.158Z,13.7
2024-02-28T17:14:55.120Z,16.6
2024-02-28T17:17:57.085Z,14.3
2024-02-28T17:20:59.024Z,13.6
2024-02-28T17:24:00.954Z,11.7
2024-02-28T17:27:02.946Z,14.4
2024-02-28T17:30:04.919Z,11.5
2024-02-28T17:33:06.899Z,13.1
2024-02-28T17:36:08.896Z,14.2
2024-02-28T17:39:10.866Z,17.7
2024-02-28T17:42:12.791Z,14.1
2024-02-28T17:45:14.831Z,17.8
2024-02-28T17:48:16.936Z,19
2024-02-28T17:51:18.727Z,13
2024-02-28T17:54:20.651Z,13.9
2024-02-28T17:57:22.594Z,13.7
2024-02-28T18:00:24.611Z,12.3
2024-02-28T18:03:26.545Z,14.5
2024-02-28T18:06:28.518Z,13.9
2024-02-28T18:09:30.560Z,17.3
2024-02-28T18:12:32.406Z,14
2024-02-28T18:15:34.483Z,13.4
2024-02-28T18:18:36.281Z,12.4
2024-02-28T18:21:38.313Z,11.6
2024-02-28T18:24:40.211Z,10.5
2024-02-28T18:27:42.149Z,14.2
2024-02-28T18:30:44.179Z,16.7
2024-02-28T18:33:46.073Z,12.2
2024-02-28T18:36:48.036Z,13.2
2024-02-28T18:39:50.032Z,12.5
2024-02-28T18:42:51.955Z,12.2
2024-02-28T18:45:54.063Z,15.2
2024-02-28T18:48:55.872Z,13
2024-02-28T18:51:57.874Z,13.3
2024-02-28T18:54:59.813Z,14.2
2024-02-28T18:58:01.808Z,16.4
2024-02-28T19:01:03.746Z,19.2
2024-02-28T19:04:05.689Z,17.5
2024-02-28T19:07:08.697Z,16.2
2024-02-28T19:10:09.646Z,13.3
2024-02-28T19:13:11.541Z,13.7
2024-02-28T19:16:13.518Z,14.5
2024-02-28T19:19:16.825Z,19.6
2024-02-28T19:22:17.338Z,15.2
2024-02-28T19:25:19.344Z,18.6
2024-02-28T19:28:21.300Z,14.7
2024-02-28T19:31:23.307Z,17
2024-02-28T19:34:25.269Z,15
2024-02-28T19:37:27.202Z,15.5
2024-02-28T19:40:29.187Z,13.9
2024-02-28T19:43:31.119Z,14.3
2024-02-28T19:46:33.156Z,17.9
2024-02-28T19:49:35.070Z,18.6
2024-02-28T19:52:36.948Z,13.8
2024-02-28T19:55:38.967Z,13.2
2024-02-28T19:58:40.852Z,15.4
2024-02-28T20:01:43.040Z,16.7
2024-02-28T20:04:44.906Z,16.1
2024-02-28T20:07:46.807Z,17.1
2024-02-28T20:10:48.720Z,17.1
2024-02-28T20:13:50.684Z,18.1
2024-02-28T20:16:52.647Z,17.4
2024-02-28T20:19:54.686Z,14.3
2024-02-28T20:22:56.577Z,13.2
2024-02-28T20:25:58.552Z,16.2
2024-02-28T20:32:02.509Z,15.4
2024-02-28T20:35:04.524Z,15.4
2024-02-28T20:38:06.481Z,13
2024-02-28T20:41:08.517Z,11.3
2024-02-28T20:44:10.414Z,13.9
2024-02-28T20:47:12.441Z,12
2024-02-28T20:50:14.473Z,14.2
2024-02-28T20:53:16.344Z,14.7
2024-02-28T20:56:18.353Z,11.4
2024-02-28T21:02:22.228Z,10.8
2024-02-28T21:05:24.314Z,12.1
2024-02-28T21:08:26.276Z,11.2
2024-02-28T21:11:28.307Z,12.9
2024-02-28T21:14:30.221Z,11.4
2024-02-28T21:17:32.237Z,12.3
2024-02-28T21:20:34.189Z,10
2024-02-28T21:23:36.163Z,12.8
2024-02-28T21:26:38.103Z,13.8
2024-02-28T21:29:40.050Z,16.5
2024-02-28T21:32:42.015Z,18.7
2024-02-28T21:35:44.020Z,18.1
2024-02-28T21:41:47.979Z,20.4
2024-02-28T21:44:49.944Z,19.9
2024-02-28T21:47:51.849Z,22.3
2024-02-28T21:50:54.073Z,25.8
2024-02-28T21:53:55.731Z,20.5
2024-02-28T21:56:57.858Z,19.3
2024-02-28T21:59:59.720Z,19.6
2024-02-28T22:03:01.579Z,25.7
2024-02-28T22:06:03.571Z,24.3
2024-02-28T22:09:05.489Z,22.2
2024-02-28T22:12:07.524Z,25.2
2024-02-28T22:15:09.484Z,17.4
2024-02-28T22:18:11.402Z,21.5
2024-02-28T22:21:13.320Z,24.8
2024-02-28T22:24:15.277Z,22.5
2024-02-28T22:27:17.257Z,26.5
2024-02-28T22:30:19.294Z,26
2024-02-28T22:33:21.211Z,26.7
2024-02-28T22:36:23.124Z,26.4
2024-02-28T22:39:25.124Z,22.2
2024-02-28T22:42:27.202Z,25.8
2024-02-28T22:45:29.122Z,25.6
2024-02-28T22:48:31.201Z,20.4
2024-02-28T22:51:33.137Z,21.5
2024-02-28T22:54:35.172Z,26.3
2024-02-28T22:57:37.056Z,22.5
2024-02-28T23:00:39.103Z,22.2
2024-02-28T23:03:40.982Z,25.9
2024-02-28T23:06:43.028Z,25.6
2024-02-28T23:09:44.964Z,26.3
2024-02-28T23:12:46.853Z,21.7
2024-02-28T23:15:48.912Z,21.8
2024-02-28T23:18:50.755Z,22.3
2024-02-28T23:21:52.748Z,19.9
2024-02-28T23:24:54.737Z,18.5
2024-02-28T23:27:56.738Z,20.3
2024-02-28T23:30:58.554Z,18.4
2024-02-28T23:34:00.543Z,20.5
2024-02-28T23:37:02.497Z,16.7
2024-02-28T23:40:04.460Z,16.9
2024-02-28T23:43:06.391Z,17.8
2024-02-28T23:46:08.423Z,19.9
2024-02-28T23:49:10.247Z,21.8
2024-02-28T23:52:12.344Z,18.4
2024-02-28T23:55:14.228Z,18.2
2024-02-28T23:58:16.127Z,17.6
